Latest Coastal Weather Observations for Hillarys Point Boat Harbour

IDW60701

Issued at 12:25 pm WST Monday 21 April 2014 (issued every 10 minutes, with the page automatically refreshed every 10 minutes)

About coastal observations | Map of coastal stations | Coastal observations for WA | Marine services | Other Formats
Station Details ID: 009265 Name: HILLARYS BOAT HARBOUR NTC AWS Lat: -31.83 Lon: 115.74 Height: 0.0 m
Data from the previous 72 hours. | See also: Recent months for locations in Western Australia
Date/Time
WST
Temp

°C
Wind Pressure Rain
since 9am
mm
Weather Cloud Vis
km
Sea
Height
m
Swell
Dir
 
Speed
knots
Gust
knots
hPa Trend Height
m
Period
s
Dir
21/12:00pm - SSW 6 11 1018.9 - - - - - - - - -
21/11:30am - SSW 4 8 1019.0 - - - - - - - - -
21/11:00am - S 3 8 1019.4 - - - - - - - - -
21/10:30am - SSE 2 7 1019.4 - - - - - - - - -
21/10:00am - SE 4 8 1019.4 - - - - - - - - -
21/09:30am - SE 2 10 1019.4 - - - - - - - - -
21/09:00am - E 3 9 1019.3 - - - - - - - - -
21/08:30am - E 3 9 1019.0 - - - - - - - - -
21/08:00am - E 3 9 1018.9 - - - - - - - - -
21/07:30am - ESE 2 8 1018.4 - - - - - - - - -
21/07:00am - SE 2 7 1018.2 - - - - - - - - -
21/06:30am - E 2 5 1018.0 - - - - - - - - -
21/06:00am - ESE 2 5 1017.8 - - - - - - - - -
21/05:30am - SE 2 7 1017.8 - - - - - - - - -
21/05:00am - SSE 3 7 1017.6 - - - - - - - - -
21/04:30am 15.1 SSE 2 6 1016.9 - - - - - - - - -
21/04:00am 15.2 ESE 1 6 1016.5 - - - - - - - - -
21/03:30am 15.5 ESE 1 4 1016.3 - - - - - - - - -
21/03:00am 16.0 SSE 4 8 1016.3 - - - - - - - - -
21/02:30am 16.3 S 5 10 1016.2 - - - - - - - - -
21/02:00am 16.6 SSE 5 9 1016.0 - - - - - - - - -
21/01:30am 16.8 SSE 5 10 1015.8 - - - - - - - - -
21/01:00am 17.3 S 5 10 1015.7 - - - - - - - - -
21/12:30am 17.1 SSE 5 9 1015.5 - - - - - - - - -
21/12:00am 17.7 SSE 4 9 1015.4 - - - - - - - - -
 
Date/Time
WST
Temp

°C
Wind Pressure Rain
since 9am
mm
Weather Cloud Vis
km
Sea
Height
m
Swell
Dir
 
Speed
knots
Gust
knots
hPa Trend Height
m
Period
s
Dir
20/11:30pm 18.1 S 5 10 1015.2 - - - - - - - - -
20/11:00pm 18.6 S 5 11 1015.2 - - - - - - - - -
20/10:30pm 18.7 SSE 4 9 1015.0 - - - - - - - - -
20/10:00pm 19.1 SSE 5 10 1014.9 - - - - - - - - -
20/09:30pm 19.4 S 4 8 1014.7 - - - - - - - - -
20/09:00pm 19.7 S 5 11 1014.3 - - - - - - - - -
20/08:30pm 19.9 S 5 10 1014.2 - - - - - - - - -
20/08:00pm 20.0 S 4 10 1013.9 - - - - - - - - -
20/07:30pm 20.2 S 5 16 1013.7 - - - - - - - - -
20/07:00pm 20.3 S 5 12 1013.5 - - - - - - - - -
20/06:30pm 20.4 S 4 12 1013.3 - - - - - - - - -
20/06:00pm 20.4 SSW 5 13 1013.0 - - - - - - - - -
20/05:30pm 20.3 SSW 7 15 1012.9 - - - - - - - - -
20/05:00pm 20.4 SSW 7 15 1012.7 - - - - - - - - -
20/04:30pm 20.5 SSW 8 16 1012.7 - - - - - - - - -
20/04:00pm 20.5 SSW 8 16 1012.6 - - - - - - - - -
20/03:30pm 20.6 SSW 9 16 1012.4 - - - - - - - - -
20/03:00pm 20.6 SSW 6 12 1012.1 - - - - - - - - -
20/02:30pm 20.1 SSW 8 13 1012.3 - - - - - - - - -
20/02:00pm 20.1 SW 7 11 1012.1 - - - - - - - - -
20/01:30pm 20.3 SW 6 10 1012.1 - - - - - - - - -
20/01:00pm 19.8 SW 7 10 1012.5 - - - - - - - - -
20/12:30pm 19.5 SW 5 9 1012.8 - - - - - - - - -
20/12:00pm 19.7 SSW 4 8 1013.4 - - - - - - - - -
20/11:30am 19.4 SW 5 9 1013.8 - - - - - - - - -
20/11:00am 19.1 SW 5 8 1014.2 - - - - - - - - -
20/10:30am 19.0 SW 4 7 1014.4 - - - - - - - - -
20/10:00am 19.1 S 3 7 1014.4 - - - - - - - - -
20/09:30am 18.3 SSE 2 4 1014.6 - - - - - - - - -
20/09:00am 17.9 SE 2 6 1014.8 - - - - - - - - -
20/08:30am 17.0 SSE 2 4 1014.9 - - - - - - - - -
20/08:00am 16.8 SSE 2 5 1014.8 - - - - - - - - -
20/07:30am 16.7 ESE 1 2 1014.5 - - - - - - - - -
20/07:00am 15.6 ESE 1 4 1014.1 - - - - - - - - -
20/06:30am 15.4 E 1 2 1013.9 - - - - - - - - -
20/06:00am 15.7 E 1 3 1014.0 - - - - - - - - -
20/05:30am 16.4 ESE 1 4 1014.0 - - - - - - - - -
20/05:00am 16.7 ESE 1 3 1014.0 - - - - - - - - -
20/04:30am 16.6 E 1 3 1013.8 - - - - - - - - -
20/04:00am 17.1 SSE 2 6 1013.5 - - - - - - - - -
20/03:30am 17.0 ESE 1 5 1013.4 - - - - - - - - -
20/03:00am 17.1 SSE 2 6 1013.5 - - - - - - - - -
20/02:30am 16.9 SE 1 5 1013.4 - - - - - - - - -
20/02:00am 17.0 SE 1 6 1013.5 - - - - - - - - -
20/01:30am 17.3 ESE 1 5 1013.6 - - - - - - - - -
20/01:00am 17.7 SE 2 6 1013.6 - - - - - - - - -
20/12:30am 18.3 SSE 3 7 1013.5 - - - - - - - - -
20/12:00am 18.9 SSE 3 6 1013.6 - - - - - - - - -
 
Date/Time
WST
Temp

°C
Wind Pressure Rain
since 9am
mm
Weather Cloud Vis
km
Sea
Height
m
Swell
Dir
 
Speed
knots
Gust
knots
hPa Trend Height
m
Period
s
Dir
19/11:30pm 19.5 SSE 4 8 1013.8 - - - - - - - - -
19/11:00pm 19.9 SSE 3 7 1014.1 - - - - - - - - -
19/10:30pm 20.1 SSE 4 7 1014.3 - - - - - - - - -
19/10:00pm 20.7 S 3 9 1014.7 - - - - - - - - -
19/09:30pm 21.0 S 4 9 1014.5 - - - - - - - - -
19/09:00pm 20.8 S 4 9 1014.8 - - - - - - - - -
19/08:30pm 20.7 SSW 6 13 1014.9 - - - - - - - - -
19/08:00pm 20.7 SSW 5 13 1014.9 - - - - - - - - -
19/07:30pm 20.7 S 5 10 1014.9 - - - - - - - - -
19/07:00pm 20.8 SSW 5 11 1014.8 - - - - - - - - -
19/06:30pm 20.7 SSW 7 16 1014.7 - - - - - - - - -
19/06:00pm 20.7 SSW 7 15 1014.5 - - - - - - - - -
19/05:30pm 20.7 SSW 8 15 1014.4 - - - - - - - - -
19/05:00pm 20.9 SSW 7 14 1014.1 - - - - - - - - -
19/04:30pm 21.2 SSW 8 14 1014.2 - - - - - - - - -
19/04:00pm - SSW 7 12 1014.1 - - - - - - - - -
19/03:30pm 21.0 SSW 8 14 1014.2 - - - - - - - - -
19/03:00pm 21.1 SSW 7 14 1014.4 - - - - - - - - -
19/02:30pm 21.3 SSW 7 13 1014.3 - - - - - - - - -
19/02:00pm 20.9 SSW 7 14 1014.4 - - - - - - - - -
19/01:30pm 20.8 SSW 8 13 1014.6 - - - - - - - - -
19/01:00pm 20.6 SSW 8 13 1014.9 - - - - - - - - -
19/12:30pm 20.7 SSW 7 13 1015.4 - - - - - - - - -
19/12:00pm 20.8 SSW 7 14 1015.9 - - - - - - - - -
19/11:30am 20.5 SSW 6 12 1016.3 - - - - - - - - -
19/11:00am 20.5 SSW 5 10 1016.8 - - - - - - - - -
19/10:30am 20.2 S 4 12 1017.1 - - - - - - - - -
19/10:00am 19.9 SSW 4 12 1017.4 - - - - - - - - -
19/09:30am 19.4 S 4 9 1017.6 - - - - - - - - -
19/09:00am 18.4 S 3 9 1017.8 - - - - - - - - -
19/08:30am 17.6 SSE 4 8 1017.9 - - - - - - - - -
19/08:00am 17.0 SSE 3 6 1017.5 - - - - - - - - -
19/07:30am 16.4 SSE 4 8 1017.3 - - - - - - - - -
19/07:00am 16.6 SSE 4 9 1017.4 - - - - - - - - -
19/06:30am - SSE 4 7 1017.2 - - - - - - - - -
19/06:00am - SSE 4 8 1017.1 - - - - - - - - -
19/05:30am 16.5 SSE 3 6 1017.1 - - - - - - - - -
19/05:00am 16.4 ESE 1 5 1017.1 - - - - - - - - -
19/04:30am 17.2 SSE 5 8 1017.5 - - - - - - - - -
19/04:00am 17.4 SSE 4 6 1017.1 - - - - - - - - -
19/03:30am 17.8 SSE 5 8 1017.0 - - - - - - - - -
19/03:00am 18.1 SSE 4 7 1017.1 - - - - - - - - -
19/02:30am 18.3 SSE 4 8 1017.1 - - - - - - - - -
19/02:00am 18.7 SSE 4 8 1017.3 - - - - - - - - -
19/01:30am 18.8 SSE 3 6 1017.4 - - - - - - - - -
19/01:00am 19.3 SSE 4 8 1017.5 - - - - - - - - -
19/12:30am 19.9 S 5 10 1017.4 - - - - - - - - -
19/12:00am 19.9 S 6 12 1017.5 - - - - - - - - -
 
Date/Time
WST
Temp

°C
Wind Pressure Rain
since 9am
mm
Weather Cloud Vis
km
Sea
Height
m
Swell
Dir
 
Speed
knots
Gust
knots
hPa Trend Height
m
Period
s
Dir
18/11:30pm 20.2 S 5 10 1017.5 - - - - - - - - -
18/11:00pm 20.3 S 4 11 1017.8 - - - - - - - - -
18/10:30pm 20.4 S 4 8 1018.2 - - - - - - - - -
18/10:00pm 20.6 S 4 10 1018.4 - - - - - - - - -
18/09:30pm 20.8 S 5 11 1018.6 - - - - - - - - -
18/09:00pm 21.0 S 4 9 1018.5 - - - - - - - - -
18/08:30pm 21.3 S 4 11 1018.4 - - - - - - - - -
18/08:00pm 21.4 S 4 9 1018.2 - - - - - - - - -
18/07:30pm 21.4 S 4 10 1018.3 - - - - - - - - -
18/07:00pm 21.4 S 4 10 1018.2 - - - - - - - - -
18/06:30pm 21.3 S 3 8 1018.0 - - - - - - - - -
18/06:00pm 21.4 S 3 9 1017.8 - - - - - - - - -
18/05:30pm 21.4 SSW 3 8 1017.6 - - - - - - - - -
18/05:00pm 21.5 SSW 4 10 1017.6 - - - - - - - - -
18/04:30pm 22.0 SSW 5 11 1017.5 - - - - - - - - -
18/04:00pm 22.3 SSW 4 10 1017.3 - - - - - - - - -
18/03:30pm 22.4 SSW 6 11 1017.4 - - - - - - - - -
18/03:00pm 22.6 SSW 7 13 1017.5 - - - - - - - - -
18/02:30pm - SSW 6 12 1017.3 - - - - - - - - -
18/02:00pm 24.0 SW 5 8 1017.3 - - - - - - - - -
18/01:30pm 24.0 SW 5 8 1017.6 - - - - - - - - -
18/01:00pm 25.0 S 3 5 1018.2 - - - - - - - - -
18/12:30pm 24.8 ESE 2 5 1018.6 - - - - - - - - -

Other Formats:

Comma delimited format used in spreadsheet applications
http://www.bom.gov.au/fwo/IDW60701/IDW60701.95605.axf

JavaScript Object Notation format (JSON) in row-major order
http://www.bom.gov.au/fwo/IDW60701/IDW60701.95605.json